Decoded Metar for OPPS (PESHAWAR in PAKISTAN) (IATA:PEW) | Meteo·Mobile Aviation Weather
aviador You're here:

OPPS Decoded Metar

PESHAWAR in PAKISTAN
Report Time2018-11-20 18:30:00
UTC Time2018-11-20 18:32:39
Flight Rules ifr IFR
Wind270° at 04 kt
W.Decomp.*RWY 35: 0.6 kt HW 4 kt LCW
W.Rank270° ranks 7
Current wind is below 270° avg. (7.6)
Visibility4000 m
Phenomena:Haze
Clouds:Few 200 Hf
Expected CloudBase > 2,800 ft AGL from Temp-Dew spread
CeilingNone
Temp16°C (ISA +3)
Dew Point09°C (63% RH)
AAT14.3°C
QNH1019 hPa
Density Alt1,532 ft
Elevation1,181 ft
Report Wrong Elevation
Raw Report
OPPS 201830Z 27004KT 4000 HZ FEW200 16/09 Q1019=

Extra information for OPPS:More info

Metar Taf Metar & Taf Last 4 Metars F.Rules Stats Wind Profile Meteogram Temp Stats Airport Information Weather charts Add Link Nearby VenuesMetar ALERT Operation Metar Decoded Social comments